Klamath Falls Airport
KLMT : now visible

Airfield :











YOU CAN JOIN US ON...

 
LOGIN :

Register | Disclaimer

   EN    FR    IT 

 









Legend :    VFR   Marginal VFR   IFR   Intensive IFR   Very Intensive IFR
Visi :
Ceiling :
>= 8 km
>= 3000ft
5 to 8 km
1000 to 3000 ft
1500m to 5 km
500 to 1000 ft
800 to 1500m
200 to 500 ft
< 800m
< 200 ft
Symbols :   Thunderstorms  Fog  Heavy snow  Heavy precipitations  Wind > 20 kt






- Airport Elevation : 4095 ft
- IATA code : LMT


KLMT - Klamath Falls

CURRENT METAR :
  • 080208Z 32006KT 1/4SM R32/1600V2000FT FG VV001 02/02 A3005 RMK AO2 T00170017

EXPIRED METARs :
  • 080153Z 32008KT 1/4SM R32/1800V2400FT FG VV001 02/02 A3005 RMK AO2 SLP187 T00220017
  • 080141Z 33007KT 1/2SM R32/2000V3000FT FG VV001 02/01 A3005 RMK AO2 T00170011
  • 080134Z 34006KT 1SM R32/2400VP6000FT BR VV001 02/01 A3005 RMK AO2 T00170011
  • 080053Z 31005KT 10SM CLR 03/02 A3005 RMK AO2 SLP185 T00280017
  • 072353Z 32005KT 10SM R32/3500VP6000FT CLR 06/03 A3006 RMK AO2 SLP181 T00610028 10100 20061 55004

TAF KLMT
Valid from the 08 at 02:00 until the 09 at 00:00 UTC


080139Z 0802/0824 VRB03KT 1SM BR VV001
FM080900 VRB03KT 2SM BR BCFG OVC002
FM081200 23003KT 5SM BR SCT005 BKN010 OVC020
FM081900 25012G21KT P6SM VCSH SCT020 BKN035
KZSE FIR / North America



MET'MAP, your aeronautical weather chart ! - Copyright ORBIFLY December 2007 - Disclaimer

ORBIFLY MET'MAP TEAM :

Programming & Development : Alexandra Zaïnal
Concept & original design : Baudouin d'Aumeries
Assistance for programming : Marc-Olivier Méhu
Technical & hardware support : Manuel Goepfert

Contact : metmap@orbifly.com




SOURCES & CREDITS :

   NOAA       Earth
Advisory